Time;durP1;ratioP1;P1;durP2;ratioP2;P2;SDS_P1;SDS_P2;PMS_P1;PMS_P2;Temp;Humidity;BMP_temperature;BMP_pressure;BME280_temperature;BME280_humidity;BME280_pressure;Samples;Min_cycle;Max_cycle;Signal;HPM_P1;HPM_P2
2023/07/22 00:00:27;;;;;;;5.63;5.13;;;14.90;99.90;;;;;;8198198;28;20224;-67
2023/07/22 00:04:31;;;;;;;6.00;5.50;;;14.90;99.90;;;;;;8201130;28;20224;-67
2023/07/22 00:08:38;;;;;;;6.17;5.63;;;14.80;1.00;;;;;;8199719;28;20264;-67
2023/07/22 00:12:39;;;;;;;6.63;6.03;;;14.70;1.00;;;;;;8210805;28;20192;-68
2023/07/22 00:16:41;;;;;;;6.40;5.77;;;14.70;99.90;;;;;;8201985;28;20327;-65
2023/07/22 00:20:42;;;;;;;6.50;5.90;;;14.70;99.90;;;;;;8199442;28;20264;-69
2023/07/22 00:24:44;;;;;;;6.07;5.47;;;14.70;99.90;;;;;;8216208;28;20279;-67
2023/07/22 00:28:45;;;;;;;7.10;6.40;;;14.70;99.90;;;;;;8204074;28;20189;-66
2023/07/22 00:32:46;;;;;;;7.30;6.60;;;14.50;99.90;;;;;;8200412;28;20189;-68
2023/07/22 00:36:47;;;;;;;7.00;6.30;;;14.50;99.90;;;;;;8195175;28;20196;-66
2023/07/22 00:40:48;;;;;;;6.47;5.50;;;14.50;99.90;;;;;;8202321;28;20223;-66
2023/07/22 00:44:50;;;;;;;6.97;6.03;;;14.50;99.90;;;;;;8217215;28;20184;-68
2023/07/22 00:48:52;;;;;;;6.47;5.87;;;14.40;99.90;;;;;;8197015;28;20203;-68
2023/07/22 00:52:53;;;;;;;6.23;5.63;;;14.40;99.90;;;;;;8197275;28;20220;-67
2023/07/22 00:56:54;;;;;;;6.47;5.87;;;14.40;99.90;;;;;;8203587;28;20191;-68
2023/07/22 01:00:55;;;;;;;7.40;6.70;;;14.40;99.90;;;;;;8201673;28;20223;-68
2023/07/22 01:05:06;;;;;;;7.10;6.40;;;14.40;99.90;;;;;;8196017;28;20216;-69
2023/07/22 01:09:10;;;;;;;6.63;6.03;;;14.40;99.90;;;;;;8204316;28;20200;-68
2023/07/22 01:13:11;;;;;;;6.60;5.73;;;14.40;99.90;;;;;;8215072;28;20192;-68
2023/07/22 01:17:13;;;;;;;6.43;5.87;;;14.40;99.90;;;;;;8204262;28;20218;-67
2023/07/22 01:21:15;;;;;;;8.00;5.70;;;14.30;99.90;;;;;;8199402;28;20207;-68
2023/07/22 01:25:16;;;;;;;6.70;6.10;;;14.30;99.90;;;;;;8202870;28;20196;-67
2023/07/22 01:29:17;;;;;;;6.37;5.50;;;14.20;99.90;;;;;;8201768;28;20192;-68
2023/07/22 01:33:18;;;;;;;9.17;5.90;;;14.00;99.90;;;;;;8221375;28;20231;-67
2023/07/22 01:37:19;;;;;;;6.20;5.60;;;14.00;99.90;;;;;;8195205;28;20216;-67
2023/07/22 01:41:19;;;;;;;7.57;6.10;;;13.90;99.90;;;;;;8204505;28;20226;-67
2023/07/22 01:45:21;;;;;;;5.40;4.80;;;13.90;99.90;;;;;;8197781;28;20188;-67
2023/07/22 01:49:24;;;;;;;6.30;5.70;;;13.80;99.90;;;;;;8219389;28;20200;-67
2023/07/22 01:53:25;;;;;;;5.17;4.67;;;13.80;99.90;;;;;;8201346;28;20202;-68
2023/07/22 01:57:26;;;;;;;6.20;5.23;;;13.80;99.90;;;;;;8199277;28;20185;-68
2023/07/22 02:01:30;;;;;;;9.83;6.07;;;13.70;99.90;;;;;;8201443;28;20232;-68
2023/07/22 02:05:30;;;;;;;7.70;5.17;;;13.60;99.90;;;;;;8201568;28;20216;-70
2023/07/22 02:09:38;;;;;;;5.60;5.10;;;13.60;99.90;;;;;;8203868;28;20200;-69
2023/07/22 02:13:38;;;;;;;6.40;5.40;;;13.50;99.90;;;;;;8205087;28;20200;-68
2023/07/22 02:17:39;;;;;;;7.67;5.27;;;13.50;99.90;;;;;;8201987;28;20231;-69
2023/07/22 02:21:40;;;;;;;6.97;5.60;;;13.40;99.90;;;;;;8207725;28;20220;-69
2023/07/22 02:25:41;;;;;;;5.70;5.10;;;13.40;99.90;;;;;;8222612;28;20246;-68
2023/07/22 02:29:42;;;;;;;5.27;4.77;;;13.30;99.90;;;;;;8203762;28;20220;-68
2023/07/22 02:33:43;;;;;;;7.43;5.30;;;13.30;99.90;;;;;;8205794;28;20220;-68
2023/07/22 02:37:51;;;;;;;5.83;5.27;;;13.20;99.90;;;;;;8202173;28;20215;-70
2023/07/22 02:41:52;;;;;;;5.77;5.10;;;13.20;99.90;;;;;;8216556;28;20216;-67
2023/07/22 02:45:53;;;;;;;8.20;5.63;;;13.20;99.90;;;;;;8205680;28;20188;-68
2023/07/22 02:50:06;;;;;;;5.80;4.60;;;13.20;99.90;;;;;;8217506;28;20210;-70
2023/07/22 02:54:07;;;;;;;6.33;5.70;;;13.20;99.90;;;;;;8207220;28;20199;-67
2023/07/22 02:58:07;;;;;;;5.33;4.83;;;13.20;99.90;;;;;;8218910;28;20211;-67
2023/07/22 03:02:08;;;;;;;9.47;5.13;;;13.20;99.90;;;;;;8202698;28;20228;-67
2023/07/22 03:06:09;;;;;;;7.70;4.93;;;13.20;99.90;;;;;;8201137;28;20263;-68
2023/07/22 03:10:10;;;;;;;9.27;4.50;;;13.20;99.90;;;;;;8202537;28;20196;-68
2023/07/22 03:14:14;;;;;;;8.50;4.53;;;13.20;99.90;;;;;;8204740;28;20204;-69
2023/07/22 03:18:15;;;;;;;7.10;4.77;;;13.30;99.90;;;;;;8200945;28;20196;-69
2023/07/22 03:22:17;;;;;;;8.17;5.47;;;13.20;99.90;;;;;;8199715;28;20220;-66
2023/07/22 03:26:17;;;;;;;8.40;4.90;;;13.20;99.90;;;;;;8201099;28;20205;-69
2023/07/22 03:30:21;;;;;;;5.97;4.37;;;13.30;99.90;;;;;;8219090;28;20223;-68
2023/07/22 03:34:22;;;;;;;9.53;4.83;;;13.30;99.90;;;;;;8216854;28;20259;-65
2023/07/22 03:38:24;;;;;;;7.07;4.73;;;13.50;99.90;;;;;;8196345;28;20197;-67
2023/07/22 03:42:24;;;;;;;6.60;4.10;;;13.70;99.90;;;;;;8204146;28;20219;-69
2023/07/22 03:46:26;;;;;;;9.27;4.53;;;13.70;99.90;;;;;;8214041;28;20193;-69
2023/07/22 03:50:27;;;;;;;6.23;4.40;;;13.70;99.90;;;;;;8202767;28;20201;-69
2023/07/22 03:54:28;;;;;;;8.13;4.47;;;13.90;99.90;;;;;;8205652;28;20204;-67
2023/07/22 03:58:29;;;;;;;9.10;4.20;;;14.50;99.90;;;;;;8208553;28;20193;-68
2023/07/22 04:02:30;;;;;;;7.73;3.40;;;15.20;99.90;;;;;;8204463;28;20240;-67
2023/07/22 04:06:31;;;;;;;7.30;3.53;;;15.70;99.90;;;;;;8185686;28;20200;-67
2023/07/22 04:10:31;;;;;;;5.83;3.07;;;16.20;99.90;;;;;;8203856;28;20196;-69
2023/07/22 04:14:32;;;;;;;5.03;2.83;;;16.70;51.20;;;;;;8206270;28;20192;-68
2023/07/22 04:18:34;;;;;;;5.20;2.87;;;17.20;1.00;;;;;;8201379;28;20216;-70
2023/07/22 04:22:35;;;;;;;7.27;2.70;;;17.70;1.00;;;;;;8200327;28;20225;-68
2023/07/22 04:26:37;;;;;;;8.43;2.77;;;17.90;1.00;;;;;;8219843;28;20193;-68
2023/07/22 04:30:39;;;;;;;6.73;2.90;;;18.40;1.00;;;;;;8198656;28;20198;-66
2023/07/22 04:34:40;;;;;;;5.30;2.57;;;18.40;1.00;;;;;;8203224;28;20284;-68
2023/07/22 04:38:41;;;;;;;4.30;3.30;;;18.70;1.00;;;;;;8216464;28;20208;-67
2023/07/22 04:42:42;;;;;;;8.27;2.87;;;18.80;1.00;;;;;;8202036;28;20212;-67
2023/07/22 04:46:43;;;;;;;5.13;2.53;;;18.90;1.00;;;;;;8210116;28;20189;-67
2023/07/22 04:50:45;;;;;;;4.57;3.57;;;18.90;1.00;;;;;;8207277;28;20328;-68
2023/07/22 04:54:47;;;;;;;3.73;2.97;;;18.80;1.00;;;;;;8204088;28;20195;-69
2023/07/22 04:58:49;;;;;;;4.20;2.63;;;18.70;1.00;;;;;;8204281;28;20193;-68
2023/07/22 05:02:52;;;;;;;3.57;2.60;;;18.80;1.00;;;;;;8221904;28;20216;-69
2023/07/22 05:06:53;;;;;;;5.30;2.60;;;18.90;1.00;;;;;;8202044;28;20188;-68
2023/07/22 05:10:54;;;;;;;3.67;2.87;;;18.90;1.00;;;;;;8208086;28;20274;-69
2023/07/22 05:14:55;;;;;;;6.63;3.10;;;18.80;1.00;;;;;;8203842;28;20197;-67
2023/07/22 05:18:56;;;;;;;4.47;4.07;;;18.10;1.00;;;;;;8222897;28;20293;-69
2023/07/22 05:22:57;;;;;;;5.80;3.70;;;17.70;1.00;;;;;;8202947;28;20259;-65
2023/07/22 05:26:58;;;;;;;4.33;3.63;;;17.30;1.00;;;;;;8205141;28;20197;-65
2023/07/22 05:31:06;;;;;;;5.10;3.67;;;17.00;1.00;;;;;;8197777;28;20200;-65
2023/07/22 05:35:14;;;;;;;4.07;3.20;;;17.00;1.00;;;;;;8211948;28;20224;-64
2023/07/22 05:39:17;;;;;;;6.63;3.47;;;17.20;1.00;;;;;;8216880;28;20323;-66
2023/07/22 05:43:18;;;;;;;4.90;3.93;;;17.40;1.00;;;;;;8224360;28;20228;-67
2023/07/22 05:47:19;;;;;;;6.67;4.60;;;17.30;1.00;;;;;;8209955;28;20223;-67
2023/07/22 05:51:20;;;;;;;4.13;3.77;;;17.20;1.00;;;;;;8211198;28;20195;-70
2023/07/22 05:55:21;;;;;;;5.23;4.27;;;17.20;1.00;;;;;;8208900;28;20192;-68
2023/07/22 05:59:22;;;;;;;5.10;4.50;;;17.40;1.00;;;;;;8212134;28;20199;-67
2023/07/22 06:03:24;;;;;;;7.30;4.30;;;17.30;1.00;;;;;;8205782;28;20286;-68
2023/07/22 06:07:46;;;;;;;4.93;4.47;;;17.20;1.00;;;;;;8205423;28;20242;-67
2023/07/22 06:12:10;;;;;;;5.03;4.57;;;17.10;1.00;;;;;;8205076;28;20192;-63
2023/07/22 06:16:14;;;;;;;6.33;4.70;;;16.80;1.00;;;;;;8201251;28;20200;-64
2023/07/22 06:20:16;;;;;;;4.40;4.00;;;16.80;1.00;;;;;;8205809;28;20220;-64
2023/07/22 06:24:17;;;;;;;6.93;4.40;;;16.80;1.00;;;;;;8195847;28;20220;-65
2023/07/22 06:28:23;;;;;;;4.97;3.83;;;16.80;1.00;;;;;;8220836;28;20191;-63
2023/07/22 06:32:24;;;;;;;3.93;3.47;;;17.00;1.00;;;;;;8206977;28;20195;-64
2023/07/22 06:36:29;;;;;;;4.60;3.47;;;17.30;1.00;;;;;;8196504;28;20200;-65
2023/07/22 06:40:30;;;;;;;4.60;2.80;;;17.40;1.00;;;;;;8199501;28;20220;-65
2023/07/22 06:44:37;;;;;;;3.00;2.67;;;17.50;1.00;;;;;;8198678;28;20223;-64
2023/07/22 06:48:39;;;;;;;4.07;2.50;;;17.50;1.00;;;;;;8203483;28;20228;-63
2023/07/22 06:52:41;;;;;;;3.63;2.77;;;17.60;1.00;;;;;;8203541;28;20205;-61
2023/07/22 06:56:48;;;;;;;3.97;2.20;;;17.70;1.00;;;;;;8204153;28;20296;-65
2023/07/22 07:00:58;;;;;;;4.23;2.43;;;17.80;1.00;;;;;;8198535;28;20220;-64
2023/07/22 07:05:00;;;;;;;3.63;2.57;;;17.90;99.90;;;;;;8204990;28;20229;-65
2023/07/22 07:09:01;;;;;;;3.10;2.33;;;17.80;99.90;;;;;;8208266;28;20195;-64
2023/07/22 07:13:02;;;;;;;2.17;1.97;;;17.90;99.90;;;;;;8224457;28;20200;-65
2023/07/22 07:17:03;;;;;;;3.73;2.07;;;18.20;99.90;;;;;;8209837;28;20195;-66
2023/07/22 07:21:15;;;;;;;2.80;1.70;;;18.50;99.90;;;;;;8206182;28;20212;-66
2023/07/22 07:25:23;;;;;;;3.37;2.17;;;18.90;99.90;;;;;;8209722;28;20188;-64
2023/07/22 07:29:24;;;;;;;3.30;2.07;;;18.90;99.90;;;;;;8209399;28;20188;-66
2023/07/22 07:33:28;;;;;;;5.73;2.17;;;19.00;99.90;;;;;;8211017;28;20283;-65
2023/07/22 07:37:31;;;;;;;4.50;2.47;;;19.30;99.90;;;;;;8206070;28;20264;-65
2023/07/22 07:41:35;;;;;;;7.90;2.00;;;19.10;99.90;;;;;;8206358;28;20227;-66
2023/07/22 07:45:42;;;;;;;4.00;2.40;;;18.70;99.90;;;;;;8203536;28;20225;-64
2023/07/22 07:49:44;;;;;;;3.10;2.17;;;18.70;99.90;;;;;;8210470;28;20192;-65
2023/07/22 07:53:46;;;;;;;4.33;1.87;;;19.00;99.90;;;;;;8207055;28;20227;-65
2023/07/22 07:57:47;;;;;;;4.43;2.00;;;19.40;99.90;;;;;;8224516;28;20208;-62
2023/07/22 08:01:52;;;;;;;6.90;2.20;;;19.20;99.90;;;;;;8206222;28;20312;-65
2023/07/22 08:05:56;;;;;;;4.30;2.13;;;19.50;99.90;;;;;;8218554;28;20220;-66
2023/07/22 08:10:04;;;;;;;2.67;2.20;;;20.10;99.90;;;;;;8220441;28;20193;-65
2023/07/22 08:14:05;;;;;;;3.63;2.53;;;20.00;99.90;;;;;;8205085;28;20220;-65
2023/07/22 08:18:06;;;;;;;2.67;2.40;;;19.60;99.90;;;;;;8204087;28;20204;-65
2023/07/22 08:22:07;;;;;;;6.33;2.47;;;18.90;99.90;;;;;;8200282;28;20255;-65
2023/07/22 08:26:09;;;;;;;5.27;2.70;;;18.90;99.90;;;;;;8219619;28;20332;-64
2023/07/22 08:30:10;;;;;;;3.40;2.87;;;18.90;99.90;;;;;;8206615;28;20205;-64
2023/07/22 08:34:24;;;;;;;4.23;2.30;;;18.90;99.90;;;;;;8200900;28;20319;-63
2023/07/22 08:38:25;;;;;;;3.37;2.20;;;19.40;99.90;;;;;;8196706;28;20220;-65
2023/07/22 08:42:32;;;;;;;5.70;2.67;;;20.00;99.90;;;;;;8206196;28;20213;-64
2023/07/22 08:46:34;;;;;;;2.37;2.10;;;20.10;99.90;;;;;;8208298;28;20255;-64
2023/07/22 08:51:32;;;;;;;3.23;2.20;;;19.90;99.90;;;;;;8204148;28;20195;-65
2023/07/22 08:55:34;;;;;;;3.73;2.40;;;20.20;99.90;;;;;;8224411;28;20211;-63
2023/07/22 08:59:36;;;;;;;4.43;2.30;;;20.60;99.90;;;;;;8207971;28;20185;-64
2023/07/22 09:03:40;;;;;;;8.47;2.13;;;21.10;99.90;;;;;;8205107;28;20229;-63
2023/07/22 09:07:43;;;;;;;3.17;1.90;;;21.40;99.90;;;;;;8202210;28;20251;-65
2023/07/22 09:11:49;;;;;;;3.27;1.80;;;22.10;99.90;;;;;;8199767;28;20197;-65
2023/07/22 09:15:54;;;;;;;2.70;1.83;;;22.10;99.90;;;;;;8217111;28;20189;-63
2023/07/22 09:19:55;;;;;;;4.27;2.10;;;21.90;99.90;;;;;;8197655;28;20217;-62
2023/07/22 09:23:56;;;;;;;2.23;2.03;;;20.90;99.90;;;;;;8215746;28;20299;-63
2023/07/22 09:28:01;;;;;;;2.87;2.07;;;19.90;99.90;;;;;;8202113;28;20311;-66
2023/07/22 09:32:03;;;;;;;6.70;2.00;;;19.70;99.90;;;;;;8215563;28;20197;-64
2023/07/22 09:36:12;;;;;;;3.17;2.10;;;20.00;99.90;;;;;;8217748;28;20392;-65
2023/07/22 09:40:29;;;;;;;3.47;2.13;;;20.10;99.90;;;;;;8213743;28;20208;-64
2023/07/22 09:44:38;;;;;;;2.77;2.07;;;20.30;99.90;;;;;;8212582;28;20201;-64
2023/07/22 09:48:46;;;;;;;2.23;2.03;;;20.40;99.90;;;;;;8194965;28;20196;-67
2023/07/22 09:52:58;;;;;;;3.77;1.83;;;20.40;99.90;;;;;;8197769;28;20196;-65
2023/07/22 09:57:04;;;;;;;2.50;1.93;;;20.50;99.90;;;;;;8200680;28;20200;-65
2023/07/22 10:01:07;;;;;;;4.00;1.80;;;21.10;99.90;;;;;;8202989;28;20409;-64
2023/07/22 10:05:23;;;;;;;2.70;1.97;;;21.80;99.90;;;;;;8197352;28;20231;-67
2023/07/22 10:09:31;;;;;;;3.40;2.07;;;22.50;99.90;;;;;;8205364;28;20192;-65
2023/07/22 10:13:32;;;;;;;2.70;1.90;;;22.60;99.90;;;;;;8190038;28;20287;-65
2023/07/22 10:17:34;;;;;;;2.70;2.10;;;22.80;99.90;;;;;;8196113;28;20189;-64
2023/07/22 10:21:36;;;;;;;3.77;2.10;;;22.00;99.90;;;;;;8200155;28;20228;-64
2023/07/22 10:25:41;;;;;;;3.03;1.80;;;21.60;99.90;;;;;;8205525;28;20197;-64
2023/07/22 10:29:44;;;;;;;2.47;1.80;;;20.70;99.90;;;;;;8212781;28;20185;-65
2023/07/22 10:33:56;;;;;;;4.30;2.17;;;20.60;99.90;;;;;;8220416;28;20189;-67
2023/07/22 10:38:17;;;;;;;2.27;1.70;;;21.30;99.90;;;;;;8221260;28;20287;-65
2023/07/22 10:42:26;;;;;;;4.17;2.20;;;21.70;99.90;;;;;;8216457;28;20311;-66
2023/07/22 10:46:43;;;;;;;3.97;2.10;;;21.60;99.90;;;;;;8197883;28;20193;-65
2023/07/22 10:50:52;;;;;;;2.10;1.90;;;21.20;99.90;;;;;;8205114;28;20190;-65
2023/07/22 10:54:56;;;;;;;3.40;2.00;;;21.10;99.90;;;;;;8203578;28;20288;-65
2023/07/22 10:58:58;;;;;;;2.30;2.10;;;20.80;99.90;;;;;;8199059;28;20192;-67
2023/07/22 11:03:13;;;;;;;3.00;2.10;;;20.50;99.90;;;;;;8206405;28;20231;-67
2023/07/22 11:07:30;;;;;;;2.60;2.10;;;20.60;99.90;;;;;;8202941;28;20181;-67
2023/07/22 11:11:44;;;;;;;5.37;2.10;;;21.00;99.90;;;;;;8220809;28;20193;-67
2023/07/22 11:15:48;;;;;;;2.00;1.80;;;21.20;99.90;;;;;;8202274;28;20188;-67
2023/07/22 11:19:50;;;;;;;5.37;2.20;;;21.80;99.90;;;;;;8200015;28;20204;-65
2023/07/22 11:23:58;;;;;;;2.27;2.07;;;21.70;99.90;;;;;;8201731;28;20192;-65
2023/07/22 11:27:59;;;;;;;3.50;2.10;;;21.60;99.90;;;;;;8204455;28;20271;-66
2023/07/22 11:32:01;;;;;;;2.40;2.07;;;22.30;99.90;;;;;;8201979;28;20260;-64
2023/07/22 11:36:06;;;;;;;3.10;2.17;;;22.30;99.90;;;;;;8200243;28;20200;-65
2023/07/22 11:40:13;;;;;;;3.10;2.33;;;21.90;99.90;;;;;;8197416;28;20220;-62
2023/07/22 11:44:19;;;;;;;2.47;2.13;;;22.10;99.90;;;;;;8203275;28;20188;-64
2023/07/22 11:48:22;;;;;;;3.30;2.23;;;22.60;99.90;;;;;;8201796;28;20184;-66
2023/07/22 11:52:23;;;;;;;3.27;2.20;;;22.30;99.90;;;;;;8191801;28;20194;-68
2023/07/22 11:56:28;;;;;;;3.73;2.60;;;21.70;99.90;;;;;;8197546;28;20184;-66
2023/07/22 12:00:29;;;;;;;2.83;2.57;;;21.20;99.90;;;;;;8202479;28;20361;-65
2023/07/22 12:04:41;;;;;;;2.40;2.20;;;21.10;99.90;;;;;;8198510;28;20232;-65
2023/07/22 12:09:01;;;;;;;2.40;2.00;;;21.20;99.90;;;;;;8199031;28;20298;-65
2023/07/22 12:13:02;;;;;;;2.30;2.07;;;21.30;99.90;;;;;;8192050;28;20332;-65
2023/07/22 12:17:09;;;;;;;2.37;2.17;;;21.30;99.90;;;;;;8187023;28;20319;-65
2023/07/22 12:21:13;;;;;;;3.63;2.73;;;21.10;99.90;;;;;;8194747;28;20299;-66
2023/07/22 12:25:20;;;;;;;2.93;2.20;;;21.10;99.90;;;;;;8178008;28;20272;-67
2023/07/22 12:29:22;;;;;;;2.40;2.20;;;21.20;99.90;;;;;;8183762;28;20203;-68
2023/07/22 12:33:24;;;;;;;2.87;2.20;;;21.50;99.90;;;;;;8198977;28;20295;-68
2023/07/22 12:37:25;;;;;;;2.20;1.93;;;22.00;99.90;;;;;;8192958;28;20268;-66
2023/07/22 12:41:26;;;;;;;2.70;2.20;;;22.50;99.90;;;;;;8206632;28;20250;-68
2023/07/22 12:45:29;;;;;;;2.40;1.87;;;22.50;99.90;;;;;;8191479;28;20192;-69
2023/07/22 12:49:30;;;;;;;3.40;2.20;;;22.50;99.90;;;;;;8208562;28;20197;-64
2023/07/22 12:53:31;;;;;;;3.03;1.90;;;22.10;99.90;;;;;;8193195;28;20203;-64
2023/07/22 12:57:36;;;;;;;2.53;2.33;;;21.70;99.90;;;;;;8217604;28;20197;-67
2023/07/22 13:01:41;;;;;;;2.43;2.23;;;21.70;99.90;;;;;;8200873;28;20213;-66
2023/07/22 13:05:48;;;;;;;3.93;2.40;;;22.20;99.90;;;;;;8200543;28;20232;-67
2023/07/22 13:09:51;;;;;;;4.00;2.17;;;22.40;99.90;;;;;;8220692;28;20380;-67
2023/07/22 13:13:52;;;;;;;3.03;2.40;;;23.10;99.90;;;;;;8207495;28;20283;-66
2023/07/22 13:17:54;;;;;;;2.30;2.10;;;23.30;99.90;;;;;;8201138;28;20200;-65
2023/07/22 13:21:55;;;;;;;4.53;3.20;;;23.70;99.90;;;;;;8206324;28;20216;-66
2023/07/22 13:25:56;;;;;;;7.43;3.57;;;23.90;99.90;;;;;;8218799;28;20189;-66
2023/07/22 13:29:57;;;;;;;5.50;4.07;;;23.90;99.90;;;;;;8206884;28;20199;-65
2023/07/22 13:33:58;;;;;;;6.47;4.03;;;23.80;99.90;;;;;;8207837;28;20196;-64
2023/07/22 13:37:59;;;;;;;2.93;2.20;;;23.60;99.90;;;;;;8205223;28;20196;-66
2023/07/22 13:42:00;;;;;;;3.87;2.80;;;23.30;99.90;;;;;;8198974;28;20351;-67
2023/07/22 13:46:02;;;;;;;4.53;1.70;;;23.30;99.90;;;;;;8194634;28;20203;-66
2023/07/22 13:50:04;;;;;;;2.90;2.50;;;23.70;99.90;;;;;;8190007;28;20311;-64
2023/07/22 13:54:05;;;;;;;4.23;2.93;;;23.40;99.90;;;;;;8198822;28;20203;-65
2023/07/22 13:58:12;;;;;;;3.73;2.50;;;23.20;99.90;;;;;;8210983;28;20193;-68
2023/07/22 14:02:16;;;;;;;2.43;2.00;;;23.40;99.90;;;;;;8203388;28;20223;-65
2023/07/22 14:06:17;;;;;;;2.43;2.23;;;23.10;99.90;;;;;;8218672;28;20200;-65
2023/07/22 14:10:18;;;;;;;11.03;9.77;;;23.20;99.90;;;;;;8201794;28;20188;-67
2023/07/22 14:14:19;;;;;;;3.17;2.50;;;23.50;99.90;;;;;;8205581;28;20193;-65
2023/07/22 14:18:24;;;;;;;2.80;2.10;;;23.70;99.90;;;;;;8201859;28;20196;-66
2023/07/22 14:22:25;;;;;;;3.53;2.10;;;23.40;99.90;;;;;;8220108;28;20306;-66
2023/07/22 14:26:26;;;;;;;4.90;1.90;;;23.30;99.90;;;;;;8203517;28;20184;-67
2023/07/22 14:30:28;;;;;;;4.53;2.20;;;22.80;99.90;;;;;;8202190;28;20188;-66
2023/07/22 14:34:28;;;;;;;2.90;2.10;;;22.40;99.90;;;;;;8204714;28;20232;-66
2023/07/22 14:38:32;;;;;;;2.03;1.73;;;22.40;99.90;;;;;;8219599;28;20188;-64
2023/07/22 14:42:33;;;;;;;2.57;1.80;;;22.50;99.90;;;;;;8202044;28;20209;-65
2023/07/22 14:46:34;;;;;;;3.50;1.80;;;22.50;99.90;;;;;;8211420;28;20184;-65
2023/07/22 14:50:35;;;;;;;3.30;2.27;;;22.60;99.90;;;;;;8210070;28;20196;-65
2023/07/22 14:54:36;;;;;;;2.10;1.90;;;22.80;99.90;;;;;;8203565;28;20203;-64
2023/07/22 14:58:43;;;;;;;2.37;1.93;;;22.90;99.90;;;;;;8201433;28;20251;-65
2023/07/22 15:02:44;;;;;;;3.50;2.03;;;22.90;99.90;;;;;;8204321;28;20221;-66
2023/07/22 15:06:52;;;;;;;3.37;1.70;;;23.00;99.90;;;;;;8203036;28;20204;-66
2023/07/22 15:10:53;;;;;;;2.20;1.83;;;23.30;99.90;;;;;;8202491;28;20220;-66
2023/07/22 15:14:55;;;;;;;2.67;1.90;;;23.40;99.90;;;;;;8202897;28;20224;-67
2023/07/22 15:18:56;;;;;;;2.17;1.97;;;23.30;99.90;;;;;;8194770;28;20226;-67
2023/07/22 15:22:57;;;;;;;3.47;2.20;;;23.10;99.90;;;;;;8201404;28;20220;-64
2023/07/22 15:26:58;;;;;;;2.10;1.90;;;22.90;99.90;;;;;;8203161;28;20196;-63
2023/07/22 15:31:00;;;;;;;2.23;1.90;;;22.50;99.90;;;;;;8204337;28;20195;-64
2023/07/22 15:35:00;;;;;;;2.93;2.03;;;22.20;99.90;;;;;;8202930;28;20204;-65
2023/07/22 15:39:08;;;;;;;3.37;2.10;;;22.10;99.90;;;;;;8200893;28;20216;-64
2023/07/22 15:43:09;;;;;;;2.70;2.30;;;22.60;99.90;;;;;;8203889;28;20212;-65
2023/07/22 15:47:10;;;;;;;2.30;1.93;;;23.20;99.90;;;;;;8201591;28;20188;-66
2023/07/22 15:51:11;;;;;;;2.03;1.80;;;23.50;99.90;;;;;;8216226;28;20204;-67
2023/07/22 15:55:12;;;;;;;3.60;2.03;;;23.80;99.90;;;;;;8202875;28;20271;-65
2023/07/22 15:59:13;;;;;;;3.13;2.00;;;23.70;99.90;;;;;;8205362;28;20199;-64
2023/07/22 16:03:15;;;;;;;3.30;1.93;;;23.20;99.90;;;;;;8197628;28;20262;-65
2023/07/22 16:07:25;;;;;;;3.33;1.80;;;23.00;99.90;;;;;;8199467;28;20225;-65
2023/07/22 16:11:26;;;;;;;2.60;1.87;;;23.20;99.90;;;;;;8196774;28;20194;-66
2023/07/22 16:15:27;;;;;;;3.97;1.80;;;23.40;99.90;;;;;;8204003;28;20227;-66
2023/07/22 16:19:28;;;;;;;2.10;1.90;;;23.10;99.90;;;;;;8206681;28;20215;-65
2023/07/22 16:23:29;;;;;;;2.27;1.80;;;23.00;99.90;;;;;;8215763;28;20224;-65
2023/07/22 16:27:32;;;;;;;2.17;1.87;;;22.70;99.90;;;;;;8198487;28;20216;-66
2023/07/22 16:31:34;;;;;;;2.10;1.90;;;22.60;99.90;;;;;;8215480;28;20217;-65
2023/07/22 16:35:35;;;;;;;1.73;1.63;;;22.80;99.90;;;;;;8201621;28;20274;-65
2023/07/22 16:39:37;;;;;;;2.20;1.93;;;22.90;99.90;;;;;;8204161;28;20227;-67
2023/07/22 16:43:41;;;;;;;2.57;2.10;;;22.90;99.90;;;;;;8221253;28;20217;-68
2023/07/22 16:47:42;;;;;;;2.30;2.00;;;23.00;99.90;;;;;;8208349;28;20196;-65
2023/07/22 16:51:44;;;;;;;2.80;1.87;;;22.80;99.90;;;;;;8206730;28;20188;-65
2023/07/22 16:55:45;;;;;;;2.10;1.90;;;22.70;99.90;;;;;;8204062;28;20216;-66
2023/07/22 16:59:48;;;;;;;3.93;2.40;;;22.40;99.90;;;;;;8207621;28;20196;-66
2023/07/22 17:03:49;;;;;;;2.93;2.50;;;22.00;99.90;;;;;;8219099;28;20231;-67
2023/07/22 17:07:54;;;;;;;2.57;2.37;;;21.80;99.90;;;;;;8215270;28;20201;-66
2023/07/22 17:11:55;;;;;;;4.63;2.90;;;21.70;99.90;;;;;;8202593;28;20189;-67
2023/07/22 17:15:55;;;;;;;6.03;3.77;;;21.70;99.90;;;;;;8203824;28;20199;-67
2023/07/22 17:19:56;;;;;;;3.30;2.63;;;21.80;99.90;;;;;;8201513;28;20196;-67
2023/07/22 17:23:58;;;;;;;2.13;1.93;;;21.90;99.90;;;;;;8200004;28;20216;-68
2023/07/22 17:27:59;;;;;;;2.77;2.17;;;21.90;99.90;;;;;;8217350;28;20197;-68
2023/07/22 17:32:00;;;;;;;7.13;3.83;;;21.90;99.90;;;;;;8213905;28;20204;-68
2023/07/22 17:36:04;;;;;;;2.90;2.70;;;22.10;99.90;;;;;;8198808;28;20231;-68
2023/07/22 17:40:05;;;;;;;6.93;4.67;;;22.20;99.90;;;;;;8198527;28;20196;-67
2023/07/22 17:44:06;;;;;;;6.00;4.43;;;22.30;99.90;;;;;;8194985;28;20193;-67
2023/07/22 17:48:08;;;;;;;3.47;3.17;;;22.70;99.90;;;;;;8204337;28;20194;-68
2023/07/22 17:52:09;;;;;;;5.13;2.40;;;23.10;99.90;;;;;;8223392;28;20224;-68
2023/07/22 17:56:10;;;;;;;8.33;4.60;;;23.30;99.90;;;;;;8205203;28;20193;-68
2023/07/22 18:00:32;;;;;;;4.60;3.37;;;23.60;99.90;;;;;;8220209;28;20202;-66
2023/07/22 18:04:34;;;;;;;3.70;2.93;;;23.60;99.90;;;;;;8205464;28;20278;-67
2023/07/22 18:08:35;;;;;;;3.33;2.40;;;24.00;99.90;;;;;;8205580;28;20195;-66
2023/07/22 18:12:36;;;;;;;9.90;5.33;;;24.20;99.90;;;;;;8199010;28;20195;-65
2023/07/22 18:16:37;;;;;;;5.77;4.60;;;24.30;99.90;;;;;;8195791;28;20218;-64
2023/07/22 18:20:38;;;;;;;3.80;2.70;;;24.10;99.90;;;;;;8212319;28;20232;-64
2023/07/22 18:24:38;;;;;;;5.17;4.10;;;23.80;99.90;;;;;;8196242;28;20268;-65
2023/07/22 18:28:39;;;;;;;3.53;2.50;;;23.40;99.90;;;;;;8197968;28;20225;-63
2023/07/22 18:32:40;;;;;;;2.60;2.00;;;23.00;99.90;;;;;;8199265;28;20271;-63
2023/07/22 18:36:41;;;;;;;3.47;2.93;;;22.60;99.90;;;;;;8195884;28;20270;-64
2023/07/22 18:40:49;;;;;;;3.87;3.20;;;22.20;99.90;;;;;;8195892;28;20216;-63
2023/07/22 18:44:50;;;;;;;3.97;3.20;;;21.60;99.90;;;;;;8200666;28;20288;-65
2023/07/22 18:48:50;;;;;;;3.27;2.57;;;20.80;99.90;;;;;;8215399;28;20203;-64
2023/07/22 18:52:55;;;;;;;3.07;2.13;;;20.20;99.90;;;;;;8205779;28;20209;-65
2023/07/22 18:56:59;;;;;;;2.87;2.30;;;19.70;99.90;;;;;;8215667;28;20201;-65
2023/07/22 19:01:00;;;;;;;3.60;2.10;;;19.10;99.90;;;;;;8199909;28;20446;-63
2023/07/22 19:05:04;;;;;;;3.13;2.83;;;18.60;99.90;;;;;;8217238;28;20239;-66
2023/07/22 19:09:05;;;;;;;2.87;2.57;;;18.10;99.90;;;;;;8223921;28;20192;-64
2023/07/22 19:13:06;;;;;;;4.10;3.70;;;17.80;99.90;;;;;;8209116;28;20188;-64
2023/07/22 19:17:07;;;;;;;4.17;3.80;;;17.40;99.90;;;;;;8205727;28;20200;-64
2023/07/22 19:21:12;;;;;;;4.20;3.13;;;17.10;99.90;;;;;;8208669;28;20208;-65
2023/07/22 19:25:16;;;;;;;3.47;3.17;;;16.80;99.90;;;;;;8207795;28;20283;-65
2023/07/22 19:29:17;;;;;;;3.73;2.80;;;16.40;99.90;;;;;;8207585;28;20208;-62
2023/07/22 19:33:21;;;;;;;5.17;2.80;;;16.20;99.90;;;;;;8213584;28;20235;-66
2023/07/22 19:37:25;;;;;;;5.57;3.07;;;16.00;99.90;;;;;;8219780;28;20193;-66
2023/07/22 19:41:31;;;;;;;4.03;2.83;;;15.80;99.90;;;;;;8208061;28;20230;-66
2023/07/22 19:45:32;;;;;;;5.17;2.80;;;15.60;99.90;;;;;;8223181;28;20200;-65
2023/07/22 19:49:37;;;;;;;2.80;2.60;;;15.40;99.90;;;;;;8207885;28;20195;-66
2023/07/22 19:53:38;;;;;;;4.87;3.10;;;15.30;99.90;;;;;;8210886;28;20197;-67
2023/07/22 19:57:42;;;;;;;10.40;5.77;;;15.10;99.90;;;;;;8207417;28;20231;-65
2023/07/22 20:02:04;;;;;;;5.10;3.20;;;14.90;99.90;;;;;;8205885;28;20227;-65
2023/07/22 20:06:07;;;;;;;3.70;2.93;;;14.80;99.90;;;;;;8194758;28;20243;-65
2023/07/22 20:10:09;;;;;;;3.23;2.43;;;14.60;99.90;;;;;;8203022;28;20188;-66
2023/07/22 20:14:09;;;;;;;3.20;2.67;;;14.50;99.90;;;;;;8216895;28;20180;-65
2023/07/22 20:18:11;;;;;;;3.20;2.37;;;14.40;99.90;;;;;;8219213;28;20209;-67
2023/07/22 20:22:14;;;;;;;2.80;2.43;;;14.30;99.90;;;;;;8200083;28;20251;-67
2023/07/22 20:26:15;;;;;;;2.47;2.23;;;14.10;99.90;;;;;;8207383;28;20212;-67
2023/07/22 20:30:16;;;;;;;3.20;2.60;;;14.10;99.90;;;;;;8209045;28;20204;-68
2023/07/22 20:34:20;;;;;;;3.53;2.87;;;13.90;99.90;;;;;;8206691;28;20317;-66
2023/07/22 20:38:21;;;;;;;4.63;3.50;;;13.90;99.90;;;;;;8223548;28;20200;-66
2023/07/22 20:42:28;;;;;;;4.87;3.10;;;13.80;99.90;;;;;;8207869;28;20271;-65
2023/07/22 20:46:38;;;;;;;4.50;2.57;;;13.60;99.90;;;;;;8210535;28;20223;-64
2023/07/22 20:50:40;;;;;;;3.93;2.63;;;13.50;99.90;;;;;;8220011;28;20307;-67
2023/07/22 20:54:41;;;;;;;4.60;2.90;;;13.50;99.90;;;;;;8204665;28;20198;-64
2023/07/22 20:58:42;;;;;;;3.37;3.00;;;13.40;99.90;;;;;;8201089;28;20202;-64
2023/07/22 21:02:43;;;;;;;4.73;3.67;;;13.30;99.90;;;;;;8205585;28;20220;-64
2023/07/22 21:06:44;;;;;;;4.73;4.20;;;13.20;99.90;;;;;;8204214;28;20323;-64